Terminal Aerodrome Forecast
Issued by NWS Tulsa, OK

Home | Current Version | Previous Version | Text Only | Print | Product List | Glossary On
Versions: 1 2 3 4 5 6 7 8 9 10 11 12 13 14
000
FTUS44 KTSA 310500
TAFFSM
TAF
KFSM 310521Z 3106/0106 10005KT 6SM -RA BR BKN005
     FM310800 09006KT 3SM -RA BR BKN005
     FM311600 07007KT P6SM BKN015
     FM312200 10005KT P6SM BKN025
     FM010000 10004KT P6SM BKN050=

USA.gov is the U.S. government's official web portal to all federal, state and local government web resources and services.